METAR Data
IDs: Format: Raw Decoded Include TAF

Data at: 1343 UTC 14 Dec 2019

METAR for:KFIT (Fitchburg Munih, MA, US)
Text:KFIT 141334Z AUTO 29006KT 2 1/2SM -RA BR OVC006 06/05 A2956 RMK AO2 T00610050 PNO $
Temperature: 6.1°C ( 43°F)
Dewpoint: 5.0°C ( 41°F) [RH = 93%]
Pressure (altimeter):29.56 inches Hg (1001.1 mb)
Winds:from the WNW (290 degrees) at 7 MPH (6 knots; 3.1 m/s)
Visibility: 2.50 sm ( 4.02 km)
Ceiling:600 feet AGL
Clouds: overcast cloud deck at 600 feet AGL
Weather:-RA BR (light rain, mist)
QC Flag:automated observation with no human augmentation; SOME DATA ABOVE MAY BE INACCURATE!!!"$" is an indication the sensor requires maintenance.